sensor_id;sensor_type;location;lat;lon;timestamp;P1;durP1;ratioP1;P2;durP2;ratioP2
23716;SDS011;22094;52.130;5.598;2022-12-07T00:01:11;22.73;;;11.38;;
23716;SDS011;22094;52.130;5.598;2022-12-07T00:03:42;28.55;;;12.00;;
23716;SDS011;22094;52.130;5.598;2022-12-07T00:06:10;19.40;;;11.15;;
23716;SDS011;22094;52.130;5.598;2022-12-07T00:08:37;18.17;;;11.70;;
23716;SDS011;22094;52.130;5.598;2022-12-07T00:11:10;23.05;;;11.18;;
23716;SDS011;22094;52.130;5.598;2022-12-07T00:13:43;16.23;;;10.77;;
23716;SDS011;22094;52.130;5.598;2022-12-07T00:16:14;24.70;;;13.00;;
23716;SDS011;22094;52.130;5.598;2022-12-07T00:18:41;20.58;;;12.73;;
23716;SDS011;22094;52.130;5.598;2022-12-07T00:21:09;18.67;;;11.90;;
23716;SDS011;22094;52.130;5.598;2022-12-07T00:23:40;20.75;;;11.20;;
23716;SDS011;22094;52.130;5.598;2022-12-07T00:26:07;21.48;;;11.13;;
23716;SDS011;22094;52.130;5.598;2022-12-07T00:28:34;19.45;;;11.55;;
23716;SDS011;22094;52.130;5.598;2022-12-07T00:31:01;25.33;;;11.68;;
23716;SDS011;22094;52.130;5.598;2022-12-07T00:33:32;20.35;;;10.40;;
23716;SDS011;22094;52.130;5.598;2022-12-07T00:35:59;18.55;;;10.52;;
23716;SDS011;22094;52.130;5.598;2022-12-07T00:38:26;22.88;;;11.45;;
23716;SDS011;22094;52.130;5.598;2022-12-07T00:40:58;25.83;;;11.52;;
23716;SDS011;22094;52.130;5.598;2022-12-07T00:43:25;21.42;;;11.50;;
23716;SDS011;22094;52.130;5.598;2022-12-07T00:45:51;17.50;;;10.73;;
23716;SDS011;22094;52.130;5.598;2022-12-07T00:48:17;26.52;;;12.55;;
23716;SDS011;22094;52.130;5.598;2022-12-07T00:50:42;18.00;;;11.55;;
23716;SDS011;22094;52.130;5.598;2022-12-07T00:53:08;23.17;;;12.10;;
23716;SDS011;22094;52.130;5.598;2022-12-07T00:55:34;27.23;;;12.10;;
23716;SDS011;22094;52.130;5.598;2022-12-07T00:58:00;21.27;;;13.02;;
23716;SDS011;22094;52.130;5.598;2022-12-07T01:00:26;24.42;;;13.35;;
23716;SDS011;22094;52.130;5.598;2022-12-07T01:02:51;30.70;;;13.20;;
23716;SDS011;22094;52.130;5.598;2022-12-07T01:05:17;25.45;;;13.63;;
23716;SDS011;22094;52.130;5.598;2022-12-07T01:07:43;26.85;;;13.18;;
23716;SDS011;22094;52.130;5.598;2022-12-07T01:10:08;25.23;;;12.77;;
23716;SDS011;22094;52.130;5.598;2022-12-07T01:12:34;27.73;;;14.55;;
23716;SDS011;22094;52.130;5.598;2022-12-07T01:15:00;26.88;;;13.80;;
23716;SDS011;22094;52.130;5.598;2022-12-07T01:17:25;35.50;;;14.85;;
23716;SDS011;22094;52.130;5.598;2022-12-07T01:19:51;26.70;;;13.75;;
23716;SDS011;22094;52.130;5.598;2022-12-07T01:22:17;21.48;;;13.35;;
23716;SDS011;22094;52.130;5.598;2022-12-07T01:24:42;26.80;;;13.55;;
23716;SDS011;22094;52.130;5.598;2022-12-07T01:27:08;28.25;;;14.35;;
23716;SDS011;22094;52.130;5.598;2022-12-07T01:29:33;28.55;;;13.27;;
23716;SDS011;22094;52.130;5.598;2022-12-07T01:31:59;24.83;;;13.20;;
23716;SDS011;22094;52.130;5.598;2022-12-07T01:34:24;22.10;;;13.27;;
23716;SDS011;22094;52.130;5.598;2022-12-07T01:36:50;25.15;;;13.73;;
23716;SDS011;22094;52.130;5.598;2022-12-07T01:39:15;24.90;;;12.98;;
23716;SDS011;22094;52.130;5.598;2022-12-07T01:41:41;32.13;;;14.25;;
23716;SDS011;22094;52.130;5.598;2022-12-07T01:44:27;22.02;;;13.40;;
23716;SDS011;22094;52.130;5.598;2022-12-07T01:47:01;31.25;;;16.40;;
23716;SDS011;22094;52.130;5.598;2022-12-07T01:49:36;31.17;;;14.20;;
23716;SDS011;22094;52.130;5.598;2022-12-07T01:54:59;28.27;;;14.35;;
23716;SDS011;22094;52.130;5.598;2022-12-07T01:57:28;29.85;;;14.93;;
23716;SDS011;22094;52.130;5.598;2022-12-07T01:59:55;26.55;;;13.88;;
23716;SDS011;22094;52.130;5.598;2022-12-07T02:02:23;25.88;;;13.20;;
23716;SDS011;22094;52.130;5.598;2022-12-07T02:04:52;24.23;;;12.32;;
23716;SDS011;22094;52.130;5.598;2022-12-07T02:07:19;23.33;;;12.18;;
23716;SDS011;22094;52.130;5.598;2022-12-07T02:09:46;27.38;;;12.02;;
23716;SDS011;22094;52.130;5.598;2022-12-07T02:12:12;23.02;;;10.85;;
23716;SDS011;22094;52.130;5.598;2022-12-07T02:14:37;19.92;;;11.15;;
23716;SDS011;22094;52.130;5.598;2022-12-07T02:17:08;23.63;;;11.18;;
23716;SDS011;22094;52.130;5.598;2022-12-07T02:19:52;22.25;;;11.07;;
23716;SDS011;22094;52.130;5.598;2022-12-07T02:22:51;20.20;;;9.07;;
23716;SDS011;22094;52.130;5.598;2022-12-07T02:28:45;20.35;;;8.60;;
23716;SDS011;22094;52.130;5.598;2022-12-07T02:31:14;18.83;;;7.57;;
23716;SDS011;22094;52.130;5.598;2022-12-07T02:33:45;22.08;;;7.70;;
23716;SDS011;22094;52.130;5.598;2022-12-07T02:36:17;25.55;;;7.75;;
23716;SDS011;22094;52.130;5.598;2022-12-07T02:38:55;21.23;;;7.05;;
23716;SDS011;22094;52.130;5.598;2022-12-07T02:41:27;17.88;;;6.45;;
23716;SDS011;22094;52.130;5.598;2022-12-07T02:43:57;16.92;;;6.25;;
23716;SDS011;22094;52.130;5.598;2022-12-07T02:46:29;22.27;;;5.80;;
23716;SDS011;22094;52.130;5.598;2022-12-07T02:51:57;15.52;;;5.85;;
23716;SDS011;22094;52.130;5.598;2022-12-07T02:54:26;22.38;;;6.35;;
23716;SDS011;22094;52.130;5.598;2022-12-07T02:57:11;18.05;;;5.93;;
23716;SDS011;22094;52.130;5.598;2022-12-07T02:59:54;21.02;;;6.68;;
23716;SDS011;22094;52.130;5.598;2022-12-07T03:10:55;19.48;;;6.50;;
23716;SDS011;22094;52.130;5.598;2022-12-07T03:13:57;14.55;;;5.75;;
23716;SDS011;22094;52.130;5.598;2022-12-07T03:16:40;16.55;;;6.22;;
23716;SDS011;22094;52.130;5.598;2022-12-07T03:19:26;11.27;;;5.72;;
23716;SDS011;22094;52.130;5.598;2022-12-07T03:24:39;12.90;;;5.90;;
23716;SDS011;22094;52.130;5.598;2022-12-07T03:27:12;14.27;;;6.05;;
23716;SDS011;22094;52.130;5.598;2022-12-07T03:30:07;19.58;;;7.10;;
23716;SDS011;22094;52.130;5.598;2022-12-07T03:32:35;14.18;;;7.18;;
23716;SDS011;22094;52.130;5.598;2022-12-07T03:37:45;18.80;;;7.07;;
23716;SDS011;22094;52.130;5.598;2022-12-07T03:40:35;21.42;;;7.75;;
23716;SDS011;22094;52.130;5.598;2022-12-07T03:43:05;18.13;;;7.38;;
23716;SDS011;22094;52.130;5.598;2022-12-07T03:45:39;14.50;;;7.00;;
23716;SDS011;22094;52.130;5.598;2022-12-07T03:48:15;15.50;;;6.63;;
23716;SDS011;22094;52.130;5.598;2022-12-07T03:51:09;17.98;;;6.80;;
23716;SDS011;22094;52.130;5.598;2022-12-07T03:53:57;15.63;;;6.43;;
23716;SDS011;22094;52.130;5.598;2022-12-07T03:56:34;16.60;;;6.22;;
23716;SDS011;22094;52.130;5.598;2022-12-07T03:59:01;20.80;;;6.20;;
23716;SDS011;22094;52.130;5.598;2022-12-07T04:01:27;15.23;;;6.47;;
23716;SDS011;22094;52.130;5.598;2022-12-07T04:03:52;18.90;;;6.50;;
23716;SDS011;22094;52.130;5.598;2022-12-07T04:06:18;14.85;;;6.53;;
23716;SDS011;22094;52.130;5.598;2022-12-07T04:08:44;15.88;;;6.40;;
23716;SDS011;22094;52.130;5.598;2022-12-07T04:11:09;16.75;;;6.63;;
23716;SDS011;22094;52.130;5.598;2022-12-07T04:13:35;17.70;;;6.53;;
23716;SDS011;22094;52.130;5.598;2022-12-07T04:16:20;13.60;;;5.80;;
23716;SDS011;22094;52.130;5.598;2022-12-07T04:18:46;17.15;;;5.63;;
23716;SDS011;22094;52.130;5.598;2022-12-07T04:21:12;12.20;;;5.32;;
23716;SDS011;22094;52.130;5.598;2022-12-07T04:23:37;18.52;;;5.97;;
23716;SDS011;22094;52.130;5.598;2022-12-07T04:26:03;18.30;;;6.47;;
23716;SDS011;22094;52.130;5.598;2022-12-07T04:28:28;15.70;;;5.93;;
23716;SDS011;22094;52.130;5.598;2022-12-07T04:30:54;16.73;;;5.40;;
23716;SDS011;22094;52.130;5.598;2022-12-07T04:33:19;10.60;;;4.82;;
23716;SDS011;22094;52.130;5.598;2022-12-07T04:35:45;16.85;;;4.88;;
23716;SDS011;22094;52.130;5.598;2022-12-07T04:38:10;16.80;;;5.30;;
23716;SDS011;22094;52.130;5.598;2022-12-07T04:40:36;18.13;;;4.72;;
23716;SDS011;22094;52.130;5.598;2022-12-07T04:43:01;15.93;;;5.30;;
23716;SDS011;22094;52.130;5.598;2022-12-07T04:45:27;16.75;;;4.68;;
23716;SDS011;22094;52.130;5.598;2022-12-07T04:47:53;14.65;;;4.70;;
23716;SDS011;22094;52.130;5.598;2022-12-07T04:50:18;16.58;;;5.07;;
23716;SDS011;22094;52.130;5.598;2022-12-07T04:52:44;14.45;;;4.72;;
23716;SDS011;22094;52.130;5.598;2022-12-07T04:55:09;14.48;;;4.95;;
23716;SDS011;22094;52.130;5.598;2022-12-07T04:57:35;14.65;;;6.03;;
23716;SDS011;22094;52.130;5.598;2022-12-07T05:00:00;16.30;;;4.68;;
23716;SDS011;22094;52.130;5.598;2022-12-07T05:02:26;19.70;;;4.90;;
23716;SDS011;22094;52.130;5.598;2022-12-07T05:04:51;15.35;;;5.68;;
23716;SDS011;22094;52.130;5.598;2022-12-07T05:07:17;23.60;;;6.72;;
23716;SDS011;22094;52.130;5.598;2022-12-07T05:09:43;20.35;;;6.18;;
23716;SDS011;22094;52.130;5.598;2022-12-07T05:12:09;19.02;;;6.78;;
23716;SDS011;22094;52.130;5.598;2022-12-07T05:14:34;20.65;;;6.45;;
23716;SDS011;22094;52.130;5.598;2022-12-07T05:17:00;16.17;;;5.85;;
23716;SDS011;22094;52.130;5.598;2022-12-07T05:19:25;11.05;;;5.22;;
23716;SDS011;22094;52.130;5.598;2022-12-07T05:21:51;13.52;;;5.05;;
23716;SDS011;22094;52.130;5.598;2022-12-07T05:24:17;14.70;;;5.05;;
23716;SDS011;22094;52.130;5.598;2022-12-07T05:26:43;12.00;;;5.68;;
23716;SDS011;22094;52.130;5.598;2022-12-07T05:29:10;20.23;;;5.70;;
23716;SDS011;22094;52.130;5.598;2022-12-07T05:31:38;14.35;;;5.40;;
23716;SDS011;22094;52.130;5.598;2022-12-07T05:34:03;15.48;;;5.20;;
23716;SDS011;22094;52.130;5.598;2022-12-07T05:36:29;20.92;;;6.28;;
23716;SDS011;22094;52.130;5.598;2022-12-07T05:38:56;14.93;;;6.30;;
23716;SDS011;22094;52.130;5.598;2022-12-07T05:41:22;19.73;;;8.65;;
23716;SDS011;22094;52.130;5.598;2022-12-07T05:44:07;15.38;;;7.50;;
23716;SDS011;22094;52.130;5.598;2022-12-07T05:46:33;14.10;;;6.68;;
23716;SDS011;22094;52.130;5.598;2022-12-07T05:48:59;18.60;;;6.30;;
23716;SDS011;22094;52.130;5.598;2022-12-07T05:51:25;24.17;;;6.40;;
23716;SDS011;22094;52.130;5.598;2022-12-07T05:53:51;18.48;;;6.55;;
23716;SDS011;22094;52.130;5.598;2022-12-07T05:56:16;19.08;;;6.68;;
23716;SDS011;22094;52.130;5.598;2022-12-07T05:58:42;20.25;;;6.75;;
23716;SDS011;22094;52.130;5.598;2022-12-07T06:01:26;23.52;;;7.18;;
23716;SDS011;22094;52.130;5.598;2022-12-07T06:03:52;29.52;;;8.45;;
23716;SDS011;22094;52.130;5.598;2022-12-07T06:06:18;28.42;;;7.80;;
23716;SDS011;22094;52.130;5.598;2022-12-07T06:08:43;19.15;;;7.53;;
23716;SDS011;22094;52.130;5.598;2022-12-07T06:11:09;21.30;;;7.70;;
23716;SDS011;22094;52.130;5.598;2022-12-07T06:14:04;20.60;;;7.50;;
23716;SDS011;22094;52.130;5.598;2022-12-07T06:16:29;26.38;;;6.25;;
23716;SDS011;22094;52.130;5.598;2022-12-07T06:18:55;17.27;;;5.60;;
23716;SDS011;22094;52.130;5.598;2022-12-07T06:21:20;18.92;;;4.53;;
23716;SDS011;22094;52.130;5.598;2022-12-07T06:23:47;12.98;;;4.95;;
23716;SDS011;22094;52.130;5.598;2022-12-07T06:26:13;22.60;;;5.45;;
23716;SDS011;22094;52.130;5.598;2022-12-07T06:28:38;15.07;;;5.65;;
23716;SDS011;22094;52.130;5.598;2022-12-07T06:31:05;15.75;;;5.70;;
23716;SDS011;22094;52.130;5.598;2022-12-07T06:33:31;20.35;;;5.75;;
23716;SDS011;22094;52.130;5.598;2022-12-07T06:36:08;14.93;;;4.68;;
23716;SDS011;22094;52.130;5.598;2022-12-07T06:38:34;10.80;;;3.92;;
23716;SDS011;22094;52.130;5.598;2022-12-07T06:40:59;14.85;;;4.25;;
23716;SDS011;22094;52.130;5.598;2022-12-07T06:43:25;17.02;;;4.25;;
23716;SDS011;22094;52.130;5.598;2022-12-07T06:45:51;17.10;;;4.28;;
23716;SDS011;22094;52.130;5.598;2022-12-07T06:48:16;12.95;;;3.53;;
23716;SDS011;22094;52.130;5.598;2022-12-07T06:50:45;15.57;;;3.72;;
23716;SDS011;22094;52.130;5.598;2022-12-07T06:53:12;16.35;;;4.05;;
23716;SDS011;22094;52.130;5.598;2022-12-07T06:55:37;17.05;;;4.22;;
23716;SDS011;22094;52.130;5.598;2022-12-07T06:58:03;18.38;;;3.90;;
23716;SDS011;22094;52.130;5.598;2022-12-07T07:00:28;15.85;;;3.70;;
23716;SDS011;22094;52.130;5.598;2022-12-07T07:02:54;15.70;;;3.72;;
23716;SDS011;22094;52.130;5.598;2022-12-07T07:05:19;18.45;;;3.92;;
23716;SDS011;22094;52.130;5.598;2022-12-07T07:07:51;15.90;;;3.60;;
23716;SDS011;22094;52.130;5.598;2022-12-07T07:10:16;9.95;;;3.17;;
23716;SDS011;22094;52.130;5.598;2022-12-07T07:12:42;17.73;;;4.05;;
23716;SDS011;22094;52.130;5.598;2022-12-07T07:15:08;14.00;;;3.70;;
23716;SDS011;22094;52.130;5.598;2022-12-07T07:17:34;17.52;;;3.92;;
23716;SDS011;22094;52.130;5.598;2022-12-07T07:20:00;12.18;;;3.90;;
23716;SDS011;22094;52.130;5.598;2022-12-07T07:22:25;20.52;;;4.47;;
23716;SDS011;22094;52.130;5.598;2022-12-07T07:24:51;12.10;;;4.82;;
23716;SDS011;22094;52.130;5.598;2022-12-07T07:27:16;18.92;;;4.68;;
23716;SDS011;22094;52.130;5.598;2022-12-07T07:29:42;19.17;;;5.13;;
23716;SDS011;22094;52.130;5.598;2022-12-07T07:32:07;13.88;;;5.28;;
23716;SDS011;22094;52.130;5.598;2022-12-07T07:34:33;9.00;;;4.60;;
23716;SDS011;22094;52.130;5.598;2022-12-07T07:36:59;20.30;;;4.13;;
23716;SDS011;22094;52.130;5.598;2022-12-07T07:39:24;11.40;;;3.60;;
23716;SDS011;22094;52.130;5.598;2022-12-07T07:41:50;17.92;;;4.63;;
23716;SDS011;22094;52.130;5.598;2022-12-07T07:44:16;15.95;;;4.82;;
23716;SDS011;22094;52.130;5.598;2022-12-07T07:46:41;17.73;;;5.38;;
23716;SDS011;22094;52.130;5.598;2022-12-07T07:49:08;24.42;;;6.95;;
23716;SDS011;22094;52.130;5.598;2022-12-07T07:51:35;25.50;;;7.78;;
23716;SDS011;22094;52.130;5.598;2022-12-07T07:54:00;22.10;;;8.30;;
23716;SDS011;22094;52.130;5.598;2022-12-07T07:56:26;20.70;;;7.50;;
23716;SDS011;22094;52.130;5.598;2022-12-07T07:58:52;17.70;;;6.10;;
23716;SDS011;22094;52.130;5.598;2022-12-07T08:01:17;16.48;;;6.35;;
23716;SDS011;22094;52.130;5.598;2022-12-07T08:03:44;20.30;;;6.00;;
23716;SDS011;22094;52.130;5.598;2022-12-07T08:06:11;23.92;;;7.15;;
23716;SDS011;22094;52.130;5.598;2022-12-07T08:08:36;24.00;;;7.78;;
23716;SDS011;22094;52.130;5.598;2022-12-07T08:11:04;19.40;;;7.97;;
23716;SDS011;22094;52.130;5.598;2022-12-07T08:13:31;23.88;;;8.90;;
23716;SDS011;22094;52.130;5.598;2022-12-07T08:15:56;25.48;;;9.95;;
23716;SDS011;22094;52.130;5.598;2022-12-07T08:18:22;25.88;;;8.40;;
23716;SDS011;22094;52.130;5.598;2022-12-07T08:20:48;21.75;;;8.45;;
23716;SDS011;22094;52.130;5.598;2022-12-07T08:23:13;18.52;;;7.50;;
23716;SDS011;22094;52.130;5.598;2022-12-07T08:25:39;18.10;;;7.10;;
23716;SDS011;22094;52.130;5.598;2022-12-07T08:28:05;22.00;;;6.75;;
23716;SDS011;22094;52.130;5.598;2022-12-07T08:30:30;21.55;;;7.00;;
23716;SDS011;22094;52.130;5.598;2022-12-07T08:32:57;19.98;;;6.57;;
23716;SDS011;22094;52.130;5.598;2022-12-07T08:35:22;18.65;;;7.72;;
23716;SDS011;22094;52.130;5.598;2022-12-07T08:37:48;24.90;;;8.05;;
23716;SDS011;22094;52.130;5.598;2022-12-07T08:40:14;24.90;;;10.43;;
23716;SDS011;22094;52.130;5.598;2022-12-07T08:42:43;25.73;;;10.57;;
23716;SDS011;22094;52.130;5.598;2022-12-07T08:45:13;33.53;;;12.70;;
23716;SDS011;22094;52.130;5.598;2022-12-07T08:47:41;32.25;;;11.80;;
23716;SDS011;22094;52.130;5.598;2022-12-07T08:50:28;40.92;;;12.63;;
23716;SDS011;22094;52.130;5.598;2022-12-07T08:52:56;34.92;;;11.98;;
23716;SDS011;22094;52.130;5.598;2022-12-07T08:55:23;39.20;;;12.57;;
23716;SDS011;22094;52.130;5.598;2022-12-07T08:57:49;39.60;;;12.57;;
23716;SDS011;22094;52.130;5.598;2022-12-07T09:00:15;28.67;;;11.00;;
23716;SDS011;22094;52.130;5.598;2022-12-07T09:02:44;30.05;;;10.18;;
23716;SDS011;22094;52.130;5.598;2022-12-07T09:05:11;23.15;;;10.15;;
23716;SDS011;22094;52.130;5.598;2022-12-07T09:07:39;32.75;;;9.98;;
23716;SDS011;22094;52.130;5.598;2022-12-07T09:10:06;27.65;;;10.65;;
23716;SDS011;22094;52.130;5.598;2022-12-07T09:12:31;34.00;;;11.45;;
23716;SDS011;22094;52.130;5.598;2022-12-07T09:14:57;27.77;;;10.65;;
23716;SDS011;22094;52.130;5.598;2022-12-07T09:17:23;30.25;;;10.60;;
23716;SDS011;22094;52.130;5.598;2022-12-07T09:19:49;27.25;;;10.40;;
23716;SDS011;22094;52.130;5.598;2022-12-07T09:22:14;23.00;;;9.30;;
23716;SDS011;22094;52.130;5.598;2022-12-07T09:24:40;25.40;;;10.13;;
23716;SDS011;22094;52.130;5.598;2022-12-07T09:27:06;25.98;;;10.05;;
23716;SDS011;22094;52.130;5.598;2022-12-07T09:29:32;25.35;;;10.43;;
23716;SDS011;22094;52.130;5.598;2022-12-07T09:31:57;22.33;;;9.77;;
23716;SDS011;22094;52.130;5.598;2022-12-07T09:34:23;30.13;;;10.05;;
23716;SDS011;22094;52.130;5.598;2022-12-07T09:36:49;20.35;;;9.88;;
23716;SDS011;22094;52.130;5.598;2022-12-07T09:39:15;25.25;;;10.30;;
23716;SDS011;22094;52.130;5.598;2022-12-07T09:41:41;24.60;;;9.18;;
23716;SDS011;22094;52.130;5.598;2022-12-07T09:44:13;18.08;;;8.60;;
23716;SDS011;22094;52.130;5.598;2022-12-07T09:46:43;25.80;;;9.05;;
23716;SDS011;22094;52.130;5.598;2022-12-07T09:49:11;21.00;;;8.30;;
23716;SDS011;22094;52.130;5.598;2022-12-07T09:51:39;18.10;;;8.57;;
23716;SDS011;22094;52.130;5.598;2022-12-07T09:54:05;18.02;;;8.38;;
23716;SDS011;22094;52.130;5.598;2022-12-07T09:56:31;14.77;;;7.85;;
23716;SDS011;22094;52.130;5.598;2022-12-07T09:59:00;25.55;;;7.40;;
23716;SDS011;22094;52.130;5.598;2022-12-07T10:01:29;18.73;;;7.63;;
23716;SDS011;22094;52.130;5.598;2022-12-07T10:04:13;18.80;;;8.82;;
23716;SDS011;22094;52.130;5.598;2022-12-07T10:06:41;23.73;;;8.60;;
23716;SDS011;22094;52.130;5.598;2022-12-07T10:09:11;18.52;;;8.18;;
23716;SDS011;22094;52.130;5.598;2022-12-07T10:14:26;17.73;;;7.05;;
23716;SDS011;22094;52.130;5.598;2022-12-07T10:16:54;20.77;;;7.40;;
23716;SDS011;22094;52.130;5.598;2022-12-07T10:19:30;15.35;;;6.82;;
23716;SDS011;22094;52.130;5.598;2022-12-07T10:24:40;20.00;;;7.13;;
23716;SDS011;22094;52.130;5.598;2022-12-07T10:27:26;16.88;;;7.07;;
23716;SDS011;22094;52.130;5.598;2022-12-07T10:29:56;13.65;;;6.95;;
23716;SDS011;22094;52.130;5.598;2022-12-07T10:35:39;18.80;;;7.68;;
23716;SDS011;22094;52.130;5.598;2022-12-07T10:37:46;19.80;;;7.97;;
23716;SDS011;22094;52.130;5.598;2022-12-07T10:40:32;19.08;;;8.25;;
23716;SDS011;22094;52.130;5.598;2022-12-07T10:43:03;17.95;;;8.15;;
23716;SDS011;22094;52.130;5.598;2022-12-07T10:45:43;17.33;;;7.47;;
23716;SDS011;22094;52.130;5.598;2022-12-07T10:48:23;18.58;;;7.50;;
23716;SDS011;22094;52.130;5.598;2022-12-07T10:57:16;8.98;;;4.25;;
23716;SDS011;22094;52.130;5.598;2022-12-07T11:03:36;16.30;;;4.07;;
23716;SDS011;22094;52.130;5.598;2022-12-07T11:11:33;14.05;;;5.07;;
23716;SDS011;22094;52.130;5.598;2022-12-07T11:14:26;12.07;;;4.13;;
23716;SDS011;22094;52.130;5.598;2022-12-07T11:17:03;8.45;;;4.47;;
23716;SDS011;22094;52.130;5.598;2022-12-07T11:31:14;9.50;;;3.30;;
23716;SDS011;22094;52.130;5.598;2022-12-07T11:33:49;7.68;;;2.75;;
23716;SDS011;22094;52.130;5.598;2022-12-07T11:38:53;12.00;;;3.40;;
23716;SDS011;22094;52.130;5.598;2022-12-07T11:41:29;8.35;;;3.15;;
23716;SDS011;22094;52.130;5.598;2022-12-07T11:44:18;6.10;;;3.10;;
23716;SDS011;22094;52.130;5.598;2022-12-07T11:46:58;8.43;;;3.38;;
23716;SDS011;22094;52.130;5.598;2022-12-07T11:52:48;10.73;;;4.78;;
23716;SDS011;22094;52.130;5.598;2022-12-07T11:55:23;12.93;;;4.20;;
23716;SDS011;22094;52.130;5.598;2022-12-07T11:57:53;13.52;;;3.80;;
23716;SDS011;22094;52.130;5.598;2022-12-07T12:00:26;4.93;;;2.40;;
23716;SDS011;22094;52.130;5.598;2022-12-07T12:03:03;7.63;;;3.15;;
23716;SDS011;22094;52.130;5.598;2022-12-07T12:05:36;4.97;;;2.65;;
23716;SDS011;22094;52.130;5.598;2022-12-07T12:08:10;5.95;;;2.03;;
23716;SDS011;22094;52.130;5.598;2022-12-07T12:13:37;7.35;;;2.40;;
23716;SDS011;22094;52.130;5.598;2022-12-07T12:21:47;4.97;;;2.10;;
23716;SDS011;22094;52.130;5.598;2022-12-07T12:24:19;7.68;;;1.92;;
23716;SDS011;22094;52.130;5.598;2022-12-07T12:26:58;8.23;;;3.90;;
23716;SDS011;22094;52.130;5.598;2022-12-07T12:29:50;8.05;;;2.20;;
23716;SDS011;22094;52.130;5.598;2022-12-07T12:32:24;6.82;;;2.30;;
23716;SDS011;22094;52.130;5.598;2022-12-07T12:35:20;8.50;;;2.92;;
23716;SDS011;22094;52.130;5.598;2022-12-07T12:40:50;8.85;;;2.22;;
23716;SDS011;22094;52.130;5.598;2022-12-07T12:52:01;5.78;;;2.88;;
23716;SDS011;22094;52.130;5.598;2022-12-07T12:54:58;6.13;;;2.47;;
23716;SDS011;22094;52.130;5.598;2022-12-07T12:57:33;6.32;;;2.13;;
23716;SDS011;22094;52.130;5.598;2022-12-07T13:02:53;7.78;;;2.63;;
23716;SDS011;22094;52.130;5.598;2022-12-07T13:05:28;7.00;;;2.40;;
23716;SDS011;22094;52.130;5.598;2022-12-07T13:12:59;9.38;;;2.63;;
23716;SDS011;22094;52.130;5.598;2022-12-07T13:26:02;4.88;;;1.83;;
23716;SDS011;22094;52.130;5.598;2022-12-07T13:28:38;5.53;;;2.40;;
23716;SDS011;22094;52.130;5.598;2022-12-07T13:34:02;5.90;;;2.53;;
23716;SDS011;22094;52.130;5.598;2022-12-07T13:36:31;6.00;;;3.38;;
23716;SDS011;22094;52.130;5.598;2022-12-07T13:39:10;4.57;;;2.30;;
23716;SDS011;22094;52.130;5.598;2022-12-07T13:41:41;5.85;;;3.45;;
23716;SDS011;22094;52.130;5.598;2022-12-07T13:44:11;5.07;;;3.70;;
23716;SDS011;22094;52.130;5.598;2022-12-07T13:46:57;8.35;;;6.20;;
23716;SDS011;22094;52.130;5.598;2022-12-07T13:49:48;9.93;;;5.45;;
23716;SDS011;22094;52.130;5.598;2022-12-07T13:52:19;8.73;;;6.38;;
23716;SDS011;22094;52.130;5.598;2022-12-07T13:55:00;8.43;;;3.63;;
23716;SDS011;22094;52.130;5.598;2022-12-07T13:57:40;12.05;;;4.10;;
23716;SDS011;22094;52.130;5.598;2022-12-07T14:02:56;7.43;;;3.30;;
23716;SDS011;22094;52.130;5.598;2022-12-07T14:05:30;10.05;;;3.80;;
23716;SDS011;22094;52.130;5.598;2022-12-07T14:07:58;6.10;;;3.20;;
23716;SDS011;22094;52.130;5.598;2022-12-07T14:10:32;7.07;;;3.30;;
23716;SDS011;22094;52.130;5.598;2022-12-07T14:13:28;7.65;;;3.38;;
23716;SDS011;22094;52.130;5.598;2022-12-07T14:15:52;8.23;;;3.85;;
23716;SDS011;22094;52.130;5.598;2022-12-07T14:18:25;9.88;;;4.60;;
23716;SDS011;22094;52.130;5.598;2022-12-07T14:21:01;9.85;;;3.88;;
23716;SDS011;22094;52.130;5.598;2022-12-07T14:23:41;7.95;;;3.47;;
23716;SDS011;22094;52.130;5.598;2022-12-07T14:26:07;8.38;;;3.83;;
23716;SDS011;22094;52.130;5.598;2022-12-07T14:28:38;6.07;;;3.65;;
23716;SDS011;22094;52.130;5.598;2022-12-07T14:31:10;10.77;;;4.15;;
23716;SDS011;22094;52.130;5.598;2022-12-07T14:33:38;6.38;;;3.15;;
23716;SDS011;22094;52.130;5.598;2022-12-07T14:36:05;4.05;;;3.25;;
23716;SDS011;22094;52.130;5.598;2022-12-07T14:38:31;7.40;;;3.40;;
23716;SDS011;22094;52.130;5.598;2022-12-07T14:40:56;6.95;;;3.67;;
23716;SDS011;22094;52.130;5.598;2022-12-07T14:43:41;8.57;;;4.03;;
23716;SDS011;22094;52.130;5.598;2022-12-07T14:46:08;11.88;;;3.78;;
23716;SDS011;22094;52.130;5.598;2022-12-07T14:48:34;7.95;;;4.20;;
23716;SDS011;22094;52.130;5.598;2022-12-07T14:51:00;8.20;;;4.30;;
23716;SDS011;22094;52.130;5.598;2022-12-07T14:53:29;11.43;;;4.32;;
23716;SDS011;22094;52.130;5.598;2022-12-07T14:55:59;7.43;;;4.22;;
23716;SDS011;22094;52.130;5.598;2022-12-07T14:58:25;9.77;;;3.42;;
23716;SDS011;22094;52.130;5.598;2022-12-07T15:00:51;7.32;;;4.20;;
23716;SDS011;22094;52.130;5.598;2022-12-07T15:03:16;10.93;;;4.20;;
23716;SDS011;22094;52.130;5.598;2022-12-07T15:05:42;7.00;;;4.00;;
23716;SDS011;22094;52.130;5.598;2022-12-07T15:08:13;9.55;;;3.88;;
23716;SDS011;22094;52.130;5.598;2022-12-07T15:10:39;7.68;;;4.38;;
23716;SDS011;22094;52.130;5.598;2022-12-07T15:13:05;11.38;;;6.13;;
23716;SDS011;22094;52.130;5.598;2022-12-07T15:15:51;10.23;;;6.53;;
23716;SDS011;22094;52.130;5.598;2022-12-07T15:18:17;7.97;;;5.03;;
23716;SDS011;22094;52.130;5.598;2022-12-07T15:20:43;11.52;;;6.18;;
23716;SDS011;22094;52.130;5.598;2022-12-07T15:23:10;10.60;;;6.18;;
23716;SDS011;22094;52.130;5.598;2022-12-07T15:25:36;11.90;;;6.63;;
23716;SDS011;22094;52.130;5.598;2022-12-07T15:28:04;12.85;;;7.35;;
23716;SDS011;22094;52.130;5.598;2022-12-07T15:30:30;11.65;;;6.80;;
23716;SDS011;22094;52.130;5.598;2022-12-07T15:32:56;12.52;;;6.07;;
23716;SDS011;22094;52.130;5.598;2022-12-07T15:35:21;11.98;;;4.30;;
23716;SDS011;22094;52.130;5.598;2022-12-07T15:37:47;7.95;;;3.60;;
23716;SDS011;22094;52.130;5.598;2022-12-07T15:40:13;6.75;;;3.15;;
23716;SDS011;22094;52.130;5.598;2022-12-07T15:42:39;8.75;;;3.47;;
23716;SDS011;22094;52.130;5.598;2022-12-07T15:45:05;8.05;;;3.55;;
23716;SDS011;22094;52.130;5.598;2022-12-07T15:47:36;12.88;;;5.65;;
23716;SDS011;22094;52.130;5.598;2022-12-07T15:50:04;13.43;;;6.20;;
23716;SDS011;22094;52.130;5.598;2022-12-07T15:52:31;13.80;;;5.13;;
23716;SDS011;22094;52.130;5.598;2022-12-07T15:54:57;8.52;;;4.93;;
23716;SDS011;22094;52.130;5.598;2022-12-07T15:57:25;12.05;;;6.47;;
23716;SDS011;22094;52.130;5.598;2022-12-07T15:59:52;8.50;;;6.50;;
23716;SDS011;22094;52.130;5.598;2022-12-07T16:02:18;11.80;;;7.53;;
23716;SDS011;22094;52.130;5.598;2022-12-07T16:04:44;17.73;;;9.00;;
23716;SDS011;22094;52.130;5.598;2022-12-07T16:07:10;13.70;;;9.30;;
23716;SDS011;22094;52.130;5.598;2022-12-07T16:09:36;17.50;;;10.68;;
23716;SDS011;22094;52.130;5.598;2022-12-07T16:12:03;12.65;;;7.43;;
23716;SDS011;22094;52.130;5.598;2022-12-07T16:14:29;12.80;;;7.90;;
23716;SDS011;22094;52.130;5.598;2022-12-07T16:16:57;14.80;;;8.70;;
23716;SDS011;22094;52.130;5.598;2022-12-07T16:19:22;14.85;;;9.88;;
23716;SDS011;22094;52.130;5.598;2022-12-07T16:21:48;14.27;;;9.52;;
23716;SDS011;22094;52.130;5.598;2022-12-07T16:24:13;24.77;;;14.38;;
23716;SDS011;22094;52.130;5.598;2022-12-07T16:26:40;21.55;;;11.35;;
23716;SDS011;22094;52.130;5.598;2022-12-07T16:29:05;18.35;;;11.35;;
23716;SDS011;22094;52.130;5.598;2022-12-07T16:31:31;15.43;;;9.10;;
23716;SDS011;22094;52.130;5.598;2022-12-07T16:33:58;21.00;;;10.45;;
23716;SDS011;22094;52.130;5.598;2022-12-07T16:36:24;19.92;;;10.13;;